Hurlingham, Argentina
Current Conditions -  °F | °C
As of 12:00 PM on Thursday 30 Oct 2014 (Local Time) from SADF Reporting Station
Broken Clouds Broken Clouds  
Wind Chill: 73°   Ceiling: 20000
Heat Index: 73°   Visibility: 6mi
Dew Point: 59°   Wind: 2mph
Humidity: 61%   Direction: 230°SW
Pressure: 29.85"   Gusts: NA
Location:  34.6°S, 58.63°W
Report Text: SADF 301500Z 23002KT 200V320 9999 FEW030TCU BKN200 23/15 Q1011
Loading
Personal Weather Stations






























Interactive Weather Map
Tropical Storm Tracking
New forecast layout! Learn more

10-Day Weather Forecast

Advertisements
Track Severe Weather on mobile